Accueil
METAR-TAF:

METAR-TAF

Aéroports :

Aéroport international de Wattay

Vientiane, Laos

latitude: 17-57N, longitude: 102-34E, altitude: 171 m

Observation

Le bulletin a été fait il y a 37 minutes, à 15:00 UTC
Vent 6 kt de nord-est
Température 24°C
Humidité 61%
Pression 1015 hPa
Visibilité: 3000 m
Quelques nuages à une hauteur de 5000 ft
brume

METAR: VLVT 211500Z 04006KT 3000 BR FEW050 24/16 Q1015 NOSIG

Heure: 22:37 (15:37 UTC)

Prévision

Le bulletin a été fait il y a 4 heures et 37 minutes, à 11:00 UTC
Prévision valable du 21 à 12 UTC au 22 à 12 UTC
Vent 6 kt de nord-ouest
Visibilité: 8000 m
Nuages épars à une hauteur de 2000 ft
Quelques nuages à une hauteur de 5000 ft

TAF: VLVT 211100Z 2112/2212 32006KT 8000 SCT020 FEW050

Observations et prévisions météorologiques de plus de 4000 aéroports (messages METAR et TAF).

Les stations disponibles sont représentées par des disques jaunes et rouges sur la carte.

Passer la souris dessus pour voir le nom de la station.

Cliquer dessus pour voir les observations et prévisions météorologiques.

Pour changer de carte: cliquez sur les boutons verts avec une croix noire pour zoomer, sur le bouton vert avec un tiret pour effectuer un zoom arrière, ou sur les flèches vertes pour les cartes adjacentes.


METAR-TAF: